createdAt,value
2024-01-27T00:00:21.310Z,19.67
2024-01-27T00:01:23.157Z,18.35
2024-01-27T00:02:27.641Z,20.90
2024-01-27T00:03:29.362Z,19.55
2024-01-27T00:05:35.191Z,21.30
2024-01-27T00:06:37.138Z,15.60
2024-01-27T00:07:38.982Z,15.32
2024-01-27T00:08:41.053Z,15.50
2024-01-27T00:09:45.368Z,15.85
2024-01-27T00:10:49.490Z,23.90
2024-01-27T00:11:51.409Z,30.55
2024-01-27T00:12:55.723Z,21.65
2024-01-27T00:13:57.450Z,20.83
2024-01-27T00:16:03.338Z,17.05
2024-01-27T00:18:07.005Z,20.15
2024-01-27T00:19:11.461Z,15.68
2024-01-27T00:20:13.409Z,13.73
2024-01-27T00:21:17.730Z,14.05
2024-01-27T00:22:19.704Z,13.73
2024-01-27T00:23:26.247Z,12.88
2024-01-27T00:24:28.064Z,12.10
2024-01-27T00:26:33.700Z,11.70
2024-01-27T00:27:35.670Z,10.52
2024-01-27T00:28:37.349Z,11.50
2024-01-27T00:29:41.587Z,13.48
2024-01-27T00:30:43.366Z,11.88
2024-01-27T00:32:46.975Z,13.65
2024-01-27T00:33:48.904Z,15.25
2024-01-27T00:34:53.315Z,15.52
2024-01-27T00:35:55.491Z,15.02
2024-01-27T00:36:57.239Z,13.63
2024-01-27T00:38:02.867Z,13.00
2024-01-27T00:39:05.537Z,13.70
2024-01-27T00:40:11.455Z,14.00
2024-01-27T00:41:19.338Z,13.82
2024-01-27T00:42:25.265Z,13.40
2024-01-27T00:43:27.432Z,13.35
2024-01-27T00:45:31.481Z,12.82
2024-01-27T00:46:33.600Z,15.05
2024-01-27T00:47:35.719Z,15.00
2024-01-27T00:48:40.272Z,16.02
2024-01-27T00:49:42.523Z,16.77
2024-01-27T00:50:44.332Z,18.67
2024-01-27T00:52:47.740Z,16.27
2024-01-27T00:53:49.857Z,12.20
2024-01-27T00:54:51.600Z,12.85
2024-01-27T00:55:53.434Z,16.67
2024-01-27T00:57:58.061Z,13.88
2024-01-27T00:58:59.896Z,11.63
2024-01-27T01:01:03.604Z,12.07
2024-01-27T01:02:05.689Z,12.40
2024-01-27T01:03:07.460Z,18.38
2024-01-27T01:05:10.963Z,18.50
2024-01-27T01:07:14.368Z,16.15
2024-01-27T01:08:16.202Z,22.20
2024-01-27T01:10:19.665Z,20.38
2024-01-27T01:11:23.916Z,16.52
2024-01-27T01:12:26.689Z,17.45
2024-01-27T01:13:30.822Z,23.02
2024-01-27T01:14:35.333Z,17.38
2024-01-27T01:15:37.204Z,20.92
2024-01-27T01:16:38.985Z,17.08
2024-01-27T01:18:42.482Z,18.85
2024-01-27T01:19:44.360Z,20.45
2024-01-27T01:20:46.187Z,25.17
2024-01-27T01:21:47.946Z,20.08
2024-01-27T01:23:54.556Z,15.77
2024-01-27T01:24:56.401Z,14.68
2024-01-27T01:25:58.097Z,15.70
2024-01-27T01:28:04.796Z,11.93
2024-01-27T01:29:08.921Z,10.77
2024-01-27T01:31:12.852Z,9.43
2024-01-27T01:32:14.630Z,9.40
2024-01-27T01:33:17.508Z,10.55
2024-01-27T01:34:19.873Z,10.35
2024-01-27T01:35:21.790Z,10.48
2024-01-27T01:36:23.679Z,9.35
2024-01-27T01:37:25.419Z,9.43
2024-01-27T01:38:27.167Z,9.02
2024-01-27T01:39:29.373Z,8.98
2024-01-27T01:40:31.208Z,9.73
2024-01-27T01:42:36.992Z,11.02
2024-01-27T01:44:40.409Z,10.23
2024-01-27T01:45:42.482Z,13.23
2024-01-27T01:46:47.305Z,17.27
2024-01-27T01:48:51.476Z,10.98
2024-01-27T01:49:53.942Z,13.57
2024-01-27T01:50:56.079Z,9.25
2024-01-27T01:51:58.712Z,10.18
2024-01-27T01:53:00.790Z,10.40
2024-01-27T01:54:03.332Z,10.10
2024-01-27T01:55:06.190Z,9.30
2024-01-27T01:56:09.799Z,8.75
2024-01-27T01:57:11.977Z,8.32
2024-01-27T01:58:13.907Z,9.65
2024-01-27T02:12:36.380Z,19.42
2024-01-27T02:13:38.263Z,19.35
2024-01-27T02:15:41.593Z,12.13
2024-01-27T02:17:47.158Z,17.02
2024-01-27T02:18:49.255Z,16.73
2024-01-27T02:19:51.230Z,20.55
2024-01-27T02:20:53.136Z,17.30
2024-01-27T02:21:58.129Z,16.65
2024-01-27T02:23:04.925Z,17.08
2024-01-27T02:24:08.907Z,17.45
2024-01-27T02:25:10.817Z,19.15
2024-01-27T02:26:12.707Z,28.52
2024-01-27T02:28:15.974Z,19.92
2024-01-27T02:29:20.665Z,17.67
2024-01-27T02:30:22.366Z,19.80
2024-01-27T02:32:30.429Z,16.83
2024-01-27T02:33:34.429Z,24.58
2024-01-27T02:34:36.281Z,25.50
2024-01-27T02:35:38.148Z,21.27
2024-01-27T02:36:39.849Z,19.55
2024-01-27T02:38:48.472Z,17.08
2024-01-27T02:39:50.307Z,12.93
2024-01-27T02:40:54.537Z,15.40
2024-01-27T02:42:01.134Z,30.00
2024-01-27T02:43:03.961Z,24.92
2024-01-27T02:44:10.380Z,31.77
2024-01-27T02:45:15.352Z,27.75
2024-01-27T02:46:17.184Z,21.60
2024-01-27T02:48:21.561Z,19.70
2024-01-27T02:49:23.504Z,18.48
2024-01-27T02:50:28.192Z,24.33
2024-01-27T02:51:29.984Z,16.13
2024-01-27T02:52:31.752Z,14.98
2024-01-27T02:54:35.234Z,15.47
2024-01-27T02:55:37.043Z,13.20
2024-01-27T02:56:38.852Z,25.30
2024-01-27T02:57:43.267Z,12.88
2024-01-27T02:58:44.908Z,14.27
2024-01-27T03:00:51.820Z,14.45
2024-01-27T03:01:53.519Z,13.25
2024-01-27T03:03:57.537Z,14.60
2024-01-27T03:06:03.393Z,10.90
2024-01-27T03:07:06.040Z,13.82
2024-01-27T03:08:10.237Z,15.27
2024-01-27T03:09:12.117Z,13.20
2024-01-27T03:10:14.017Z,13.45
2024-01-27T03:12:19.647Z,16.42
2024-01-27T03:13:22.281Z,16.42
2024-01-27T03:14:24.052Z,19.50
2024-01-27T03:16:28.771Z,26.70
2024-01-27T03:17:30.489Z,17.95
2024-01-27T03:19:34.519Z,23.45
2024-01-27T03:20:36.415Z,14.00
2024-01-27T03:21:38.067Z,14.25
2024-01-27T03:23:43.741Z,10.52
2024-01-27T03:24:45.894Z,16.10
2024-01-27T03:25:47.727Z,11.68
2024-01-27T03:27:51.106Z,15.20
2024-01-27T03:28:52.981Z,11.82
2024-01-27T03:29:55.544Z,11.10
2024-01-27T03:30:57.303Z,15.23
2024-01-27T03:33:03.320Z,12.93
2024-01-27T03:34:07.733Z,11.75
2024-01-27T03:35:09.739Z,18.55
2024-01-27T03:36:12.640Z,17.20
2024-01-27T03:37:16.553Z,12.00
2024-01-27T03:39:20.100Z,14.63
2024-01-27T03:40:21.862Z,11.73
2024-01-27T03:41:23.945Z,9.57
2024-01-27T03:42:25.822Z,12.13
2024-01-27T03:43:27.941Z,13.20
2024-01-27T03:44:29.670Z,16.17
2024-01-27T03:46:35.249Z,11.00
2024-01-27T03:47:37.021Z,15.27
2024-01-27T03:49:40.938Z,10.63
2024-01-27T03:50:43.380Z,14.07
2024-01-27T03:51:45.178Z,10.15
2024-01-27T03:53:48.627Z,10.35
2024-01-27T03:55:51.949Z,11.60
2024-01-27T03:57:56.518Z,10.48
2024-01-27T03:58:58.258Z,10.30
2024-01-27T04:00:00.138Z,15.48
2024-01-27T04:01:05.114Z,9.25
2024-01-27T04:02:07.084Z,10.05
2024-01-27T04:03:10.770Z,10.40
2024-01-27T04:04:12.514Z,11.05
2024-01-27T04:06:16.039Z,9.70
2024-01-27T04:07:20.590Z,10.38
2024-01-27T04:08:24.570Z,13.98
2024-01-27T04:09:29.412Z,11.07
2024-01-27T04:10:31.299Z,11.82
2024-01-27T04:12:35.192Z,11.82
2024-01-27T04:13:38.259Z,11.43
2024-01-27T04:14:39.949Z,12.52
2024-01-27T04:16:43.502Z,12.07
2024-01-27T04:18:51.656Z,14.13
2024-01-27T04:19:53.683Z,11.45
2024-01-27T04:20:55.418Z,12.35
2024-01-27T04:21:59.974Z,11.93
2024-01-27T04:23:02.757Z,10.35
2024-01-27T04:24:05.003Z,10.77
2024-01-27T04:25:07.653Z,10.70
2024-01-27T04:26:10.810Z,10.27
2024-01-27T04:27:12.620Z,11.23
2024-01-27T04:28:14.449Z,11.82
2024-01-27T04:30:18.465Z,10.57
2024-01-27T04:31:20.486Z,10.05
2024-01-27T04:32:23.828Z,11.02
2024-01-27T04:33:26.053Z,9.00
2024-01-27T04:34:28.881Z,9.13
2024-01-27T04:35:32.865Z,8.90
2024-01-27T04:36:34.814Z,7.65
2024-01-27T04:37:37.119Z,7.53
2024-01-27T04:38:38.897Z,9.15
2024-01-27T04:40:42.586Z,7.75
2024-01-27T04:43:48.798Z,8.13
2024-01-27T04:45:52.449Z,7.82
2024-01-27T04:46:54.358Z,7.05
2024-01-27T04:47:56.417Z,7.85
2024-01-27T04:49:02.781Z,8.50
2024-01-27T04:50:07.594Z,8.05
2024-01-27T04:51:09.489Z,7.82
2024-01-27T04:52:13.447Z,7.72
2024-01-27T04:53:15.172Z,7.70
2024-01-27T04:55:19.486Z,8.15
2024-01-27T04:56:21.457Z,7.90
2024-01-27T04:57:23.168Z,8.20
2024-01-27T04:59:28.660Z,8.60
2024-01-27T05:02:13.404Z,8.32
2024-01-27T05:03:18.510Z,8.15
2024-01-27T05:04:22.616Z,8.85
2024-01-27T05:05:27.172Z,9.18
2024-01-27T05:06:29.194Z,9.05
2024-01-27T05:07:31.192Z,8.60
2024-01-27T05:08:32.939Z,8.50
2024-01-27T05:09:35.838Z,10.07
2024-01-27T05:10:37.884Z,7.80
2024-01-27T05:11:39.657Z,8.13
2024-01-27T05:12:46.360Z,7.60
2024-01-27T05:13:48.506Z,7.60
2024-01-27T05:14:50.274Z,7.20
2024-01-27T05:15:52.207Z,6.50
2024-01-27T05:16:54.938Z,7.35
2024-01-27T05:17:56.998Z,6.88
2024-01-27T05:18:58.939Z,6.53
2024-01-27T05:21:05.735Z,7.57
2024-01-27T05:22:07.585Z,6.38
2024-01-27T05:24:11.168Z,6.65
2024-01-27T05:25:13.058Z,7.10
2024-01-27T05:26:17.155Z,6.03
2024-01-27T05:27:19.891Z,6.53
2024-01-27T05:28:21.866Z,5.97
2024-01-27T05:29:23.589Z,5.28
2024-01-27T05:31:27.911Z,5.28
2024-01-27T05:32:29.660Z,5.90
2024-01-27T05:34:33.467Z,5.30
2024-01-27T05:35:35.287Z,5.70
2024-01-27T05:37:40.901Z,5.70
2024-01-27T05:38:42.947Z,6.03
2024-01-27T05:39:47.057Z,5.55
2024-01-27T05:40:50.328Z,6.45
2024-01-27T05:41:52.340Z,6.65
2024-01-27T05:42:54.178Z,6.53
2024-01-27T05:45:02.265Z,6.85
2024-01-27T05:46:04.668Z,5.78
2024-01-27T05:47:10.115Z,6.65
2024-01-27T05:48:13.677Z,6.05
2024-01-27T05:49:15.697Z,6.40
2024-01-27T05:50:19.202Z,6.35
2024-01-27T05:51:22.455Z,6.90
2024-01-27T05:52:25.704Z,6.43
2024-01-27T05:53:28.854Z,6.32
2024-01-27T05:54:30.658Z,6.50
2024-01-27T05:55:32.541Z,6.43
2024-01-27T05:56:34.336Z,6.18
2024-01-27T05:57:36.740Z,5.95
2024-01-27T05:58:38.908Z,6.68
2024-01-27T05:59:40.808Z,6.00
2024-01-27T06:01:49.931Z,6.47
2024-01-27T06:02:52.059Z,6.72
2024-01-27T06:03:54.602Z,6.10
2024-01-27T06:04:58.564Z,5.82
2024-01-27T06:06:00.506Z,6.20
2024-01-27T06:07:02.401Z,6.10
2024-01-27T06:08:08.546Z,6.30
2024-01-27T06:09:15.090Z,7.00
2024-01-27T06:10:16.904Z,6.15
2024-01-27T06:12:40.051Z,6.35
2024-01-27T06:13:42.354Z,6.50
2024-01-27T06:14:46.160Z,6.15
2024-01-27T06:15:48.053Z,6.07
2024-01-27T06:17:54.556Z,6.35
2024-01-27T06:18:57.588Z,6.18
2024-01-27T06:19:59.599Z,6.32
2024-01-27T06:21:01.636Z,6.20
2024-01-27T06:22:06.517Z,6.50
2024-01-27T06:23:09.006Z,6.43
2024-01-27T06:24:13.453Z,6.93
2024-01-27T06:25:15.941Z,6.63
2024-01-27T06:26:17.716Z,7.13
2024-01-27T06:27:21.806Z,6.82
2024-01-27T06:28:23.865Z,6.90
2024-01-27T06:30:30.026Z,7.47
2024-01-27T06:31:31.862Z,7.10
2024-01-27T06:33:36.377Z,7.13
2024-01-27T06:34:38.759Z,8.18
2024-01-27T06:35:43.092Z,7.53
2024-01-27T06:36:45.000Z,8.15
2024-01-27T06:37:46.796Z,9.43
2024-01-27T06:39:52.554Z,7.78
2024-01-27T06:40:55.012Z,8.05
2024-01-27T06:41:56.812Z,8.07
2024-01-27T06:44:05.916Z,8.27
2024-01-27T06:45:08.252Z,8.15
2024-01-27T06:46:10.361Z,8.57
2024-01-27T06:47:12.237Z,8.93
2024-01-27T06:48:16.494Z,8.20
2024-01-27T06:49:18.519Z,8.27
2024-01-27T06:50:20.340Z,8.02
2024-01-27T06:51:24.176Z,8.85
2024-01-27T06:53:28.028Z,8.60
2024-01-27T06:54:32.496Z,8.75
2024-01-27T06:55:34.420Z,8.70
2024-01-27T06:56:39.470Z,8.48
2024-01-27T06:57:42.156Z,8.00
2024-01-27T06:58:44.776Z,7.90
2024-01-27T06:59:49.552Z,7.55
2024-01-27T07:00:51.393Z,7.80
2024-01-27T07:01:53.338Z,7.50
2024-01-27T07:02:57.029Z,7.53
2024-01-27T07:03:58.895Z,8.25
2024-01-27T07:05:01.183Z,7.50
2024-01-27T07:06:06.011Z,8.45
2024-01-27T07:07:08.645Z,7.78
2024-01-27T07:08:10.920Z,7.45
2024-01-27T07:09:12.964Z,7.82
2024-01-27T07:10:16.151Z,7.88
2024-01-27T07:11:18.247Z,7.53
2024-01-27T07:12:20.100Z,8.20
2024-01-27T07:14:23.519Z,8.37
2024-01-27T07:15:25.723Z,9.25
2024-01-27T07:16:27.469Z,9.88
2024-01-27T07:18:33.361Z,8.80
2024-01-27T07:19:35.487Z,8.43
2024-01-27T07:20:38.263Z,9.48
2024-01-27T07:21:42.497Z,10.02
2024-01-27T07:22:44.544Z,10.70
2024-01-27T07:23:46.326Z,9.50
2024-01-27T07:25:50.887Z,9.10
2024-01-27T07:26:56.506Z,8.90
2024-01-27T07:27:58.474Z,9.40
2024-01-27T07:30:02.076Z,8.48
2024-01-27T07:31:04.551Z,8.10
2024-01-27T07:32:08.973Z,9.25
2024-01-27T07:33:11.055Z,9.13
2024-01-27T07:34:16.246Z,8.63
2024-01-27T07:35:18.125Z,8.98
2024-01-27T07:36:20.189Z,8.52
2024-01-27T07:37:22.112Z,8.77
2024-01-27T07:38:23.806Z,8.70
2024-01-27T07:40:27.418Z,8.50
2024-01-27T07:41:32.102Z,9.20
2024-01-27T07:42:36.712Z,9.00
2024-01-27T07:43:38.541Z,9.05
2024-01-27T07:45:42.412Z,7.78
2024-01-27T07:46:44.407Z,8.15
2024-01-27T07:47:46.213Z,7.65
2024-01-27T07:48:49.214Z,8.60
2024-01-27T07:49:52.030Z,8.35
2024-01-27T07:50:53.846Z,8.48
2024-01-27T07:54:02.324Z,7.65
2024-01-27T07:55:06.467Z,8.55
2024-01-27T07:56:08.826Z,7.55
2024-01-27T07:57:10.656Z,7.55
2024-01-27T07:58:14.738Z,7.50
2024-01-27T07:59:16.673Z,7.55
2024-01-27T08:02:19.096Z,7.78
2024-01-27T08:03:23.097Z,7.50
2024-01-27T08:04:25.006Z,7.25
2024-01-27T08:05:32.229Z,7.57
2024-01-27T08:06:34.166Z,8.85
2024-01-27T08:09:41.207Z,6.95
2024-01-27T08:10:43.143Z,8.05
2024-01-27T08:12:49.507Z,6.55
2024-01-27T08:13:53.823Z,6.47
2024-01-27T08:14:56.201Z,6.55
2024-01-27T08:15:58.080Z,6.50
2024-01-27T08:18:01.965Z,6.10
2024-01-27T08:19:03.991Z,6.15
2024-01-27T08:20:06.524Z,5.63
2024-01-27T08:21:08.385Z,6.20
2024-01-27T08:22:10.596Z,6.20
2024-01-27T08:23:12.578Z,5.68
2024-01-27T08:24:17.462Z,5.82
2024-01-27T08:25:19.675Z,6.35
2024-01-27T08:26:21.950Z,5.55
2024-01-27T08:27:23.879Z,6.03
2024-01-27T08:28:25.952Z,4.85
2024-01-27T08:29:30.745Z,5.30
2024-01-27T08:30:32.583Z,5.70
2024-01-27T08:31:34.424Z,5.57
2024-01-27T08:33:42.628Z,5.53
2024-01-27T08:34:44.642Z,5.03
2024-01-27T08:35:49.420Z,5.38
2024-01-27T08:36:53.371Z,5.07
2024-01-27T08:37:55.205Z,4.80
2024-01-27T08:39:58.796Z,4.78
2024-01-27T08:42:02.540Z,4.72
2024-01-27T08:43:04.464Z,5.43
2024-01-27T08:44:06.270Z,5.63
2024-01-27T08:45:12.946Z,5.40
2024-01-27T08:46:16.594Z,5.50
2024-01-27T08:47:20.559Z,5.28
2024-01-27T08:48:22.446Z,5.13
2024-01-27T08:49:24.360Z,5.47
2024-01-27T08:50:28.602Z,4.93
2024-01-27T08:51:30.606Z,5.30
2024-01-27T08:52:33.562Z,4.88
2024-01-27T08:53:36.415Z,5.25
2024-01-27T08:54:40.293Z,5.38
2024-01-27T08:55:42.128Z,5.47
2024-01-27T08:56:43.919Z,5.43
2024-01-27T08:58:51.180Z,5.25
2024-01-27T08:59:55.301Z,5.70
2024-01-27T09:00:57.351Z,5.47
2024-01-27T09:02:01.634Z,5.07
2024-01-27T09:03:04.601Z,5.53
2024-01-27T09:04:06.510Z,5.38
2024-01-27T09:05:10.793Z,5.65
2024-01-27T09:06:13.004Z,5.85
2024-01-27T09:07:15.198Z,5.80
2024-01-27T09:08:18.145Z,6.10
2024-01-27T09:09:22.276Z,6.22
2024-01-27T09:10:24.010Z,5.10
2024-01-27T09:12:30.713Z,5.22
2024-01-27T09:13:35.141Z,5.57
2024-01-27T09:14:36.872Z,5.93
2024-01-27T09:15:41.729Z,5.70
2024-01-27T09:16:43.533Z,5.82
2024-01-27T09:18:47.194Z,5.60
2024-01-27T09:19:49.028Z,5.78
2024-01-27T09:21:52.753Z,5.40
2024-01-27T09:23:57.348Z,5.80
2024-01-27T09:24:59.215Z,5.38
2024-01-27T09:27:03.212Z,5.55
2024-01-27T09:28:05.109Z,5.20
2024-01-27T09:30:11.203Z,5.20
2024-01-27T09:31:13.055Z,4.90
2024-01-27T09:33:18.702Z,4.90
2024-01-27T09:34:20.786Z,5.07
2024-01-27T09:35:25.384Z,4.55
2024-01-27T09:36:27.377Z,4.68
2024-01-27T09:37:29.827Z,5.45
2024-01-27T09:38:31.520Z,5.00
2024-01-27T09:39:33.503Z,5.38
2024-01-27T09:40:35.640Z,5.40
2024-01-27T09:41:38.739Z,5.25
2024-01-27T09:42:46.161Z,5.05
2024-01-27T09:43:48.766Z,4.90
2024-01-27T09:44:50.911Z,4.65
2024-01-27T09:45:52.862Z,4.80
2024-01-27T09:46:56.030Z,5.30
2024-01-27T09:48:01.774Z,5.18
2024-01-27T09:49:05.019Z,4.95
2024-01-27T09:50:09.078Z,5.43
2024-01-27T09:51:12.053Z,5.13
2024-01-27T09:52:16.252Z,4.80
2024-01-27T09:53:18.129Z,5.47
2024-01-27T09:55:22.510Z,4.32
2024-01-27T09:56:25.282Z,4.72
2024-01-27T09:57:28.396Z,4.55
2024-01-27T09:58:33.216Z,4.53
2024-01-27T09:59:37.300Z,4.28
2024-01-27T10:00:40.238Z,4.88
2024-01-27T10:01:42.104Z,4.32
2024-01-27T10:02:45.645Z,4.53
2024-01-27T10:03:48.788Z,4.95
2024-01-27T10:04:51.866Z,4.30
2024-01-27T10:06:00.438Z,4.25
2024-01-27T10:07:05.524Z,4.28
2024-01-27T10:08:09.687Z,4.75
2024-01-27T10:09:11.639Z,5.00
2024-01-27T10:10:13.535Z,4.85
2024-01-27T10:11:16.087Z,5.10
2024-01-27T10:12:21.143Z,4.93
2024-01-27T10:13:29.106Z,4.88
2024-01-27T10:14:41.225Z,4.82
2024-01-27T10:16:47.507Z,5.10
2024-01-27T10:17:50.021Z,4.60
2024-01-27T10:19:03.681Z,4.60
2024-01-27T10:20:08.557Z,4.57
2024-01-27T10:21:17.035Z,4.10
2024-01-27T10:22:18.868Z,3.83
2024-01-27T10:24:22.288Z,4.60
2024-01-27T10:25:24.453Z,4.60
2024-01-27T10:26:26.134Z,5.03
2024-01-27T10:28:29.523Z,4.37
2024-01-27T10:30:38.403Z,4.57
2024-01-27T10:31:40.576Z,4.47
2024-01-27T10:32:42.360Z,4.20
2024-01-27T10:35:10.935Z,3.70
2024-01-27T10:36:12.784Z,3.90
2024-01-27T10:37:16.985Z,3.60
2024-01-27T10:38:20.913Z,3.60
2024-01-27T10:40:26.375Z,3.55
2024-01-27T10:41:32.398Z,4.50
2024-01-27T10:42:36.699Z,4.75
2024-01-27T10:43:39.437Z,4.30
2024-01-27T10:44:44.914Z,4.18
2024-01-27T10:45:46.755Z,4.30
2024-01-27T10:46:50.133Z,4.60
2024-01-27T10:47:52.531Z,3.53
2024-01-27T10:48:54.996Z,3.63
2024-01-27T10:49:58.809Z,3.90
2024-01-27T10:51:04.463Z,3.97
2024-01-27T10:52:12.877Z,4.15
2024-01-27T10:53:31.783Z,4.50
2024-01-27T10:54:36.258Z,3.92
2024-01-27T10:55:39.136Z,3.83
2024-01-27T10:56:43.752Z,3.72
2024-01-27T10:57:47.648Z,4.00
2024-01-27T10:58:52.213Z,3.50
2024-01-27T10:59:58.666Z,3.95
2024-01-27T11:02:22.655Z,3.75
2024-01-27T11:03:28.607Z,3.67
2024-01-27T11:04:33.847Z,3.80
2024-01-27T11:05:37.067Z,3.85
2024-01-27T11:06:40.709Z,3.53
2024-01-27T11:07:43.511Z,3.70
2024-01-27T11:08:46.025Z,3.83
2024-01-27T11:09:52.012Z,3.38
2024-01-27T11:10:53.872Z,3.83
2024-01-27T11:11:56.033Z,3.78
2024-01-27T11:12:58.069Z,3.65
2024-01-27T11:14:00.003Z,3.75
2024-01-27T11:15:01.975Z,3.80
2024-01-27T11:16:04.203Z,3.72
2024-01-27T11:17:06.199Z,3.60
2024-01-27T11:18:08.150Z,3.90
2024-01-27T11:19:12.430Z,3.90
2024-01-27T11:20:18.180Z,3.80
2024-01-27T11:21:20.912Z,3.83
2024-01-27T11:22:29.650Z,3.60
2024-01-27T11:23:35.721Z,3.45
2024-01-27T11:24:37.627Z,3.63
2024-01-27T11:25:39.557Z,3.63
2024-01-27T11:26:41.728Z,3.63
2024-01-27T11:27:45.286Z,3.60
2024-01-27T11:28:47.114Z,4.03
2024-01-27T11:29:49.896Z,3.70
2024-01-27T11:30:52.173Z,4.03
2024-01-27T11:31:56.003Z,4.18
2024-01-27T11:32:58.877Z,3.58
2024-01-27T11:34:03.900Z,3.20
2024-01-27T11:35:06.600Z,3.42
2024-01-27T11:36:09.037Z,3.72
2024-01-27T11:37:17.231Z,3.72
2024-01-27T11:38:18.898Z,3.78
2024-01-27T11:39:25.911Z,3.65
2024-01-27T11:40:27.859Z,3.50
2024-01-27T11:41:31.283Z,3.20
2024-01-27T11:42:33.282Z,3.60
2024-01-27T11:43:35.022Z,3.72
2024-01-27T11:44:37.723Z,3.40
2024-01-27T11:45:39.680Z,3.50
2024-01-27T11:46:42.340Z,3.95
2024-01-27T11:47:44.488Z,3.63
2024-01-27T11:48:46.612Z,3.70
2024-01-27T11:49:56.442Z,3.80
2024-01-27T11:51:14.169Z,3.75
2024-01-27T11:52:16.599Z,3.70
2024-01-27T11:53:18.481Z,3.72
2024-01-27T11:54:22.563Z,3.75
2024-01-27T11:55:24.591Z,3.72
2024-01-27T11:58:31.446Z,3.63
2024-01-27T11:59:36.245Z,3.70
2024-01-27T12:00:39.126Z,4.10
2024-01-27T12:01:41.293Z,3.88
2024-01-27T12:02:43.246Z,4.07
2024-01-27T12:03:46.787Z,3.60
2024-01-27T12:04:53.242Z,3.33
2024-01-27T12:05:55.510Z,3.65
2024-01-27T12:06:59.939Z,4.05
2024-01-27T12:08:01.973Z,3.83
2024-01-27T12:09:03.987Z,4.03
2024-01-27T12:10:06.336Z,3.70
2024-01-27T12:11:08.288Z,4.10
2024-01-27T12:13:13.025Z,3.85
2024-01-27T12:14:15.098Z,3.72
2024-01-27T12:15:17.769Z,3.63
2024-01-27T12:16:20.069Z,3.58
2024-01-27T12:17:24.135Z,3.70
2024-01-27T12:18:28.319Z,4.03
2024-01-27T12:19:32.869Z,3.92
2024-01-27T12:20:34.800Z,3.92
2024-01-27T12:22:38.866Z,3.55
2024-01-27T12:24:01.086Z,3.63
2024-01-27T12:25:16.630Z,3.75
2024-01-27T12:26:22.352Z,3.90
2024-01-27T12:27:24.458Z,3.40
2024-01-27T12:28:26.483Z,4.07
2024-01-27T12:29:29.451Z,3.70
2024-01-27T12:30:34.438Z,3.67
2024-01-27T12:31:36.362Z,3.70
2024-01-27T12:32:38.419Z,3.75
2024-01-27T12:33:43.529Z,3.60
2024-01-27T12:34:49.578Z,3.92
2024-01-27T12:35:52.290Z,4.10
2024-01-27T12:36:54.394Z,3.30
2024-01-27T12:37:56.310Z,3.67
2024-01-27T12:39:04.795Z,3.83
2024-01-27T12:40:25.252Z,3.90
2024-01-27T12:41:28.425Z,3.50
2024-01-27T12:42:30.556Z,3.85
2024-01-27T12:43:32.374Z,3.83
2024-01-27T12:45:36.496Z,3.70
2024-01-27T12:46:39.378Z,3.60
2024-01-27T12:47:42.048Z,3.65
2024-01-27T12:48:46.105Z,3.67
2024-01-27T12:49:48.379Z,3.50
2024-01-27T12:50:50.292Z,3.40
2024-01-27T12:51:53.155Z,3.80
2024-01-27T12:52:55.671Z,3.40
2024-01-27T12:53:57.685Z,3.70
2024-01-27T12:54:59.653Z,3.47
2024-01-27T12:56:01.793Z,3.58
2024-01-27T12:57:04.020Z,3.63
2024-01-27T12:58:06.059Z,3.30
2024-01-27T12:59:09.383Z,3.58
2024-01-27T13:00:12.048Z,3.42
2024-01-27T13:01:14.149Z,3.45
2024-01-27T13:02:16.761Z,3.30
2024-01-27T13:03:19.023Z,3.30
2024-01-27T13:04:20.987Z,3.33
2024-01-27T13:05:22.803Z,3.40
2024-01-27T13:06:27.481Z,3.60
2024-01-27T13:07:29.603Z,3.70
2024-01-27T13:08:31.780Z,3.65
2024-01-27T13:09:33.986Z,3.50
2024-01-27T13:10:38.913Z,3.60
2024-01-27T13:11:40.833Z,3.38
2024-01-27T13:12:42.594Z,3.97
2024-01-27T13:13:48.182Z,3.83
2024-01-27T13:14:52.421Z,3.90
2024-01-27T13:15:54.410Z,3.70
2024-01-27T13:16:57.799Z,3.78
2024-01-27T13:18:00.489Z,3.58
2024-01-27T13:19:02.386Z,3.45
2024-01-27T13:20:06.959Z,3.35
2024-01-27T13:21:09.564Z,3.70
2024-01-27T13:22:11.340Z,3.33
2024-01-27T13:24:17.589Z,3.42
2024-01-27T13:25:19.361Z,3.75
2024-01-27T13:27:25.204Z,3.47
2024-01-27T13:28:30.345Z,3.50
2024-01-27T13:29:33.748Z,3.40
2024-01-27T13:30:37.259Z,3.90
2024-01-27T13:31:41.605Z,3.20
2024-01-27T13:32:43.612Z,3.60
2024-01-27T13:33:45.976Z,3.30
2024-01-27T13:34:51.384Z,3.47
2024-01-27T13:35:56.731Z,3.60
2024-01-27T13:36:59.819Z,3.30
2024-01-27T13:38:01.514Z,3.60
2024-01-27T13:39:03.585Z,3.50
2024-01-27T13:40:06.980Z,3.67
2024-01-27T13:41:08.970Z,3.33
2024-01-27T13:42:10.966Z,3.35
2024-01-27T13:43:13.759Z,3.40
2024-01-27T13:44:15.900Z,3.58
2024-01-27T13:45:17.985Z,3.30
2024-01-27T13:46:23.676Z,3.47
2024-01-27T13:47:27.186Z,3.38
2024-01-27T13:48:29.287Z,3.50
2024-01-27T13:49:32.307Z,3.35
2024-01-27T13:50:36.633Z,3.63
2024-01-27T13:51:38.365Z,3.45
2024-01-27T13:52:49.784Z,3.38
2024-01-27T13:53:51.788Z,3.50
2024-01-27T13:54:53.656Z,3.42
2024-01-27T13:56:57.070Z,3.33
2024-01-27T13:57:59.110Z,3.58
2024-01-27T13:59:00.942Z,3.20
2024-01-27T14:12:33.385Z,3.35
2024-01-27T14:13:37.757Z,3.50
2024-01-27T14:15:42.975Z,3.40
2024-01-27T14:16:45.956Z,3.40
2024-01-27T14:17:47.746Z,3.75
2024-01-27T14:18:49.613Z,3.33
2024-01-27T14:19:51.592Z,3.50
2024-01-27T14:20:53.387Z,3.45
2024-01-27T14:21:57.571Z,3.67
2024-01-27T14:23:01.714Z,3.38
2024-01-27T14:24:07.301Z,3.75
2024-01-27T14:25:09.280Z,3.70
2024-01-27T14:26:16.109Z,3.47
2024-01-27T14:27:19.324Z,3.40
2024-01-27T14:28:21.538Z,3.60
2024-01-27T14:29:23.312Z,3.60
2024-01-27T14:31:31.520Z,3.72
2024-01-27T14:32:33.753Z,3.63
2024-01-27T14:33:35.694Z,3.67
2024-01-27T14:34:37.627Z,3.72
2024-01-27T14:35:40.473Z,3.35
2024-01-27T14:36:42.565Z,3.17
2024-01-27T14:37:44.448Z,3.60
2024-01-27T14:39:55.220Z,3.80
2024-01-27T14:41:01.476Z,3.72
2024-01-27T14:42:05.691Z,3.50
2024-01-27T14:43:10.872Z,3.83
2024-01-27T14:44:15.170Z,3.45
2024-01-27T14:45:17.118Z,3.50
2024-01-27T14:46:23.977Z,3.63
2024-01-27T14:47:25.939Z,3.30
2024-01-27T14:48:30.239Z,3.60
2024-01-27T14:49:32.189Z,3.63
2024-01-27T14:50:36.629Z,3.67
2024-01-27T14:51:40.729Z,3.70
2024-01-27T14:52:42.528Z,3.65
2024-01-27T14:54:49.425Z,3.55
2024-01-27T14:55:54.533Z,3.88
2024-01-27T14:56:59.705Z,3.58
2024-01-27T14:58:04.939Z,3.72
2024-01-27T14:59:08.717Z,3.63
2024-01-27T15:00:11.453Z,3.78
2024-01-27T15:01:16.583Z,3.42
2024-01-27T15:02:21.489Z,3.60
2024-01-27T15:03:27.741Z,4.15
2024-01-27T15:04:29.710Z,3.53
2024-01-27T15:05:37.520Z,3.38
2024-01-27T15:06:42.512Z,4.07
2024-01-27T15:07:44.379Z,3.78
2024-01-27T15:08:46.833Z,3.60
2024-01-27T15:09:48.595Z,3.67
2024-01-27T15:10:50.516Z,3.70
2024-01-27T15:11:52.498Z,3.47
2024-01-27T15:12:54.250Z,3.78
2024-01-27T15:14:57.667Z,3.40
2024-01-27T15:16:04.883Z,3.85
2024-01-27T15:17:08.459Z,3.80
2024-01-27T15:18:10.347Z,3.72
2024-01-27T15:19:12.355Z,3.97
2024-01-27T15:20:17.612Z,3.95
2024-01-27T15:21:19.388Z,4.20
2024-01-27T15:23:26.925Z,3.90
2024-01-27T15:24:36.317Z,3.85
2024-01-27T15:25:38.113Z,4.07
2024-01-27T15:27:41.657Z,3.72
2024-01-27T15:28:43.530Z,3.80
2024-01-27T15:29:46.163Z,3.90
2024-01-27T15:30:50.011Z,3.83
2024-01-27T15:31:52.036Z,3.88
2024-01-27T15:32:53.813Z,3.75
2024-01-27T15:35:02.305Z,4.00
2024-01-27T15:36:07.267Z,3.83
2024-01-27T15:37:12.250Z,4.43
2024-01-27T15:38:14.030Z,3.88
2024-01-27T15:40:19.780Z,3.93
2024-01-27T15:41:21.684Z,4.00
2024-01-27T15:42:25.827Z,3.90
2024-01-27T15:43:27.568Z,4.20
2024-01-27T15:45:34.161Z,3.87
2024-01-27T15:46:36.062Z,3.83
2024-01-27T15:48:39.890Z,4.35
2024-01-27T15:49:42.442Z,3.85
2024-01-27T15:50:48.407Z,4.18
2024-01-27T15:51:50.564Z,4.15
2024-01-27T15:53:54.007Z,4.00
2024-01-27T15:56:00.059Z,3.95
2024-01-27T15:57:01.834Z,3.67
2024-01-27T15:58:03.801Z,4.70
2024-01-27T15:59:05.464Z,4.20
2024-01-27T16:00:12.241Z,4.10
2024-01-27T16:01:14.210Z,4.28
2024-01-27T16:04:22.569Z,4.40
2024-01-27T16:05:24.655Z,4.35
2024-01-27T16:06:26.501Z,4.18
2024-01-27T16:07:30.595Z,4.43
2024-01-27T16:08:32.305Z,4.35
2024-01-27T16:09:40.756Z,4.32
2024-01-27T16:10:43.201Z,4.15
2024-01-27T16:11:47.194Z,4.40
2024-01-27T16:12:49.115Z,4.25
2024-01-27T16:13:51.094Z,4.18
2024-01-27T16:14:52.809Z,4.65
2024-01-27T16:16:58.430Z,4.63
2024-01-27T16:18:02.667Z,4.30
2024-01-27T16:19:06.910Z,4.20
2024-01-27T16:20:09.396Z,4.38
2024-01-27T16:21:11.110Z,4.47
2024-01-27T16:22:15.690Z,4.20
2024-01-27T16:23:17.601Z,4.32
2024-01-27T16:25:21.071Z,4.70
2024-01-27T16:27:30.693Z,4.40
2024-01-27T16:28:38.449Z,4.40
2024-01-27T16:29:40.365Z,4.40
2024-01-27T16:31:44.050Z,4.68
2024-01-27T16:32:46.279Z,4.40